Time;durP1;ratioP1;P1;durP2;ratioP2;P2;SDS_P1;SDS_P2;PMS_P1;PMS_P2;Temp;Humidity;BMP_temperature;BMP_pressure;BME280_temperature;BME280_humidity;BME280_pressure;Samples;Min_cycle;Max_cycle;Signal;HPM_P1;HPM_P2
2023/09/24 00:01:13;;;;;;;1.80;1.70;;;9.10;99.90;;;;;;6300848;28;20693;-80
2023/09/24 00:04:15;;;;;;;3.75;1.45;;;9.10;99.90;;;;;;6301191;28;20056;-81
2023/09/24 00:07:17;;;;;;;3.75;1.25;;;9.10;99.90;;;;;;6302112;28;20119;-80
2023/09/24 00:10:20;;;;;;;4.13;1.48;;;9.00;99.90;;;;;;6302828;28;20049;-80
2023/09/24 00:13:24;;;;;;;1.40;1.30;;;9.00;99.90;;;;;;6302549;28;20049;-81
2023/09/24 00:16:26;;;;;;;2.58;1.80;;;8.90;99.90;;;;;;6302799;28;20143;-80
2023/09/24 00:19:27;;;;;;;8.43;2.10;;;8.90;99.90;;;;;;6302648;28;20209;-81
2023/09/24 00:22:29;;;;;;;3.92;1.77;;;8.80;99.90;;;;;;6294073;28;20048;-80
2023/09/24 00:25:31;;;;;;;3.60;1.75;;;8.80;99.90;;;;;;6297223;28;20055;-80
2023/09/24 00:28:34;;;;;;;1.65;1.52;;;8.80;99.90;;;;;;6298399;28;20047;-80
2023/09/24 00:31:35;;;;;;;4.25;1.58;;;8.80;99.90;;;;;;6291896;28;20044;-81
2023/09/24 00:34:38;;;;;;;2.00;1.55;;;8.80;99.90;;;;;;6299012;28;20052;-80
2023/09/24 00:37:41;;;;;;;1.45;1.33;;;8.80;99.90;;;;;;6299793;28;20045;-80
2023/09/24 00:40:42;;;;;;;1.77;1.50;;;8.70;99.90;;;;;;6300524;28;20052;-78
2023/09/24 00:43:45;;;;;;;5.35;1.25;;;8.60;99.90;;;;;;6300760;28;20417;-77
2023/09/24 00:46:47;;;;;;;4.53;2.28;;;8.60;99.90;;;;;;6305003;28;20066;-78
2023/09/24 00:49:50;;;;;;;4.30;2.25;;;8.60;99.90;;;;;;6300460;28;20063;-79
2023/09/24 00:52:54;;;;;;;3.17;1.90;;;8.70;99.90;;;;;;6300132;28;20041;-79
2023/09/24 00:55:56;;;;;;;2.63;1.73;;;8.70;99.90;;;;;;6300017;28;20055;-78
2023/09/24 00:59:00;;;;;;;2.22;1.17;;;8.70;99.90;;;;;;6300651;28;20049;-78
2023/09/24 01:02:02;;;;;;;4.40;1.70;;;8.60;99.90;;;;;;6299472;28;20045;-78
2023/09/24 01:05:05;;;;;;;1.45;1.35;;;8.60;99.90;;;;;;6299173;28;20073;-77
2023/09/24 01:08:07;;;;;;;3.47;1.70;;;8.50;99.90;;;;;;6300401;28;20041;-77
2023/09/24 01:11:08;;;;;;;4.72;2.28;;;8.50;99.90;;;;;;6300283;28;20044;-79
2023/09/24 01:14:13;;;;;;;4.70;1.25;;;8.50;99.90;;;;;;6299512;28;20041;-79
2023/09/24 01:17:15;;;;;;;2.05;1.52;;;8.50;99.90;;;;;;6299200;28;20097;-77
2023/09/24 01:20:21;;;;;;;3.25;1.52;;;8.50;99.90;;;;;;6300260;28;20049;-79
2023/09/24 01:23:24;;;;;;;1.35;1.20;;;8.40;99.90;;;;;;6300028;28;20076;-78
2023/09/24 01:26:25;;;;;;;1.15;1.08;;;8.40;99.90;;;;;;6299340;28;20416;-79
2023/09/24 01:29:27;;;;;;;1.42;1.20;;;8.30;99.90;;;;;;6300850;28;20076;-78
2023/09/24 01:32:29;;;;;;;2.45;2.25;;;8.30;99.90;;;;;;6299423;28;20106;-79
2023/09/24 01:35:32;;;;;;;3.08;2.45;;;8.30;99.90;;;;;;6298874;28;20425;-79
2023/09/24 01:38:36;;;;;;;2.92;1.58;;;8.20;99.90;;;;;;6299304;28;20425;-78
2023/09/24 01:41:38;;;;;;;1.90;1.70;;;8.10;99.90;;;;;;6290642;28;20479;-79
2023/09/24 01:44:41;;;;;;;3.08;1.77;;;8.10;99.90;;;;;;6298485;28;20047;-78
2023/09/24 01:47:44;;;;;;;2.78;1.63;;;8.10;99.90;;;;;;6299568;28;20045;-79
2023/09/24 01:50:46;;;;;;;3.00;2.15;;;8.10;99.90;;;;;;6299321;28;20059;-79
2023/09/24 01:53:49;;;;;;;1.92;1.83;;;8.00;99.90;;;;;;6297854;28;20416;-77
2023/09/24 01:56:50;;;;;;;1.38;1.30;;;8.00;99.90;;;;;;6298937;28;20424;-79
2023/09/24 01:59:52;;;;;;;2.00;1.90;;;8.00;99.90;;;;;;6299006;28;20045;-78
2023/09/24 02:02:56;;;;;;;2.22;1.67;;;8.00;99.90;;;;;;6298966;28;20044;-78
2023/09/24 02:05:58;;;;;;;2.47;1.77;;;7.90;99.90;;;;;;6298524;28;20045;-79
2023/09/24 02:09:02;;;;;;;1.50;1.40;;;7.90;99.90;;;;;;6298595;28;20048;-79
2023/09/24 02:12:04;;;;;;;2.35;1.60;;;7.80;99.90;;;;;;6299525;28;20055;-79
2023/09/24 02:15:12;;;;;;;2.25;1.73;;;7.80;99.90;;;;;;6298287;28;20413;-77
2023/09/24 02:18:13;;;;;;;;;;;7.80;99.90;;;;;;6299697;28;20120;-78
2023/09/24 02:21:17;;;;;;;4.93;1.83;;;7.80;99.90;;;;;;6300167;28;20051;-78
2023/09/24 02:24:20;;;;;;;2.38;2.17;;;7.80;99.90;;;;;;6297899;28;20064;-79
2023/09/24 02:27:22;;;;;;;3.33;2.22;;;7.70;99.90;;;;;;6298805;28;20116;-80
2023/09/24 02:30:25;;;;;;;4.10;1.80;;;7.70;99.90;;;;;;6297888;28;20040;-79
2023/09/24 02:33:27;;;;;;;4.63;1.52;;;7.70;99.90;;;;;;6297711;28;20051;-79
2023/09/24 02:36:29;;;;;;;1.50;1.40;;;7.70;99.90;;;;;;6298709;28;20049;-79
2023/09/24 02:39:32;;;;;;;2.10;1.90;;;7.70;99.90;;;;;;6299210;28;20044;-79
2023/09/24 02:42:33;;;;;;;1.67;1.58;;;7.60;99.90;;;;;;6298641;28;20632;-80
2023/09/24 02:45:35;;;;;;;2.03;1.55;;;7.60;99.90;;;;;;6298541;28;20056;-79
2023/09/24 02:48:39;;;;;;;2.45;1.50;;;7.60;99.90;;;;;;6299164;28;20044;-80
2023/09/24 02:51:40;;;;;;;2.00;1.80;;;7.60;99.90;;;;;;6298354;28;20050;-78
2023/09/24 02:54:43;;;;;;;2.13;1.63;;;7.60;99.90;;;;;;6289871;28;20365;-78
2023/09/24 02:57:47;;;;;;;1.80;1.48;;;7.60;99.90;;;;;;6298108;28;20041;-79
2023/09/24 03:00:50;;;;;;;2.25;1.95;;;7.50;99.90;;;;;;6298118;28;20500;-78
2023/09/24 03:03:53;;;;;;;2.13;1.77;;;7.50;99.90;;;;;;6299392;28;20048;-79
2023/09/24 03:06:55;;;;;;;1.90;1.80;;;7.50;99.90;;;;;;6297647;28;20045;-77
2023/09/24 03:09:58;;;;;;;2.38;1.58;;;7.50;99.90;;;;;;6297134;28;20410;-78
2023/09/24 03:13:00;;;;;;;3.08;2.65;;;7.50;99.90;;;;;;6297726;28;20045;-79
2023/09/24 03:16:02;;;;;;;2.92;1.60;;;7.50;99.90;;;;;;6299088;28;20059;-78
2023/09/24 03:19:04;;;;;;;7.05;2.05;;;7.40;99.90;;;;;;6302284;28;20040;-79
2023/09/24 03:22:05;;;;;;;1.60;1.45;;;7.40;99.90;;;;;;6301995;28;20040;-79
2023/09/24 03:25:10;;;;;;;2.58;1.70;;;7.40;99.90;;;;;;6302689;28;20043;-79
2023/09/24 03:28:12;;;;;;;1.48;1.38;;;7.40;99.90;;;;;;6306524;28;20082;-79
2023/09/24 03:31:15;;;;;;;3.10;1.83;;;7.40;99.90;;;;;;6303152;28;20055;-78
2023/09/24 03:34:16;;;;;;;3.15;1.55;;;7.30;99.90;;;;;;6303371;28;20044;-79
2023/09/24 03:37:18;;;;;;;3.10;1.63;;;7.30;99.90;;;;;;6302556;28;20431;-78
2023/09/24 03:40:24;;;;;;;1.83;1.73;;;7.30;99.90;;;;;;6302146;28;20056;-79
2023/09/24 03:43:26;;;;;;;3.22;2.08;;;7.20;99.90;;;;;;6303124;28;20149;-78
2023/09/24 03:46:27;;;;;;;2.13;1.67;;;7.20;99.90;;;;;;6301687;28;20416;-79
2023/09/24 03:49:29;;;;;;;4.53;1.60;;;7.20;99.90;;;;;;6301755;28;20055;-78
2023/09/24 03:52:31;;;;;;;2.80;2.53;;;7.10;99.90;;;;;;6302215;28;20607;-79
2023/09/24 03:55:35;;;;;;;6.63;2.13;;;7.10;99.90;;;;;;6301531;28;20055;-79
2023/09/24 03:58:37;;;;;;;2.13;2.00;;;7.10;99.90;;;;;;6301315;28;20048;-79
2023/09/24 04:01:39;;;;;;;2.05;1.85;;;7.00;99.90;;;;;;6301317;28;20052;-78
2023/09/24 04:04:42;;;;;;;2.58;1.67;;;7.00;99.90;;;;;;6302121;28;20040;-77
2023/09/24 04:07:44;;;;;;;1.73;1.60;;;7.00;99.90;;;;;;6300894;28;20041;-79
2023/09/24 04:10:47;;;;;;;6.40;1.65;;;6.90;99.90;;;;;;6302559;28;20412;-77
2023/09/24 04:13:49;;;;;;;2.60;1.70;;;6.80;99.90;;;;;;6302015;28;20045;-79
2023/09/24 04:16:51;;;;;;;2.30;1.88;;;6.80;99.90;;;;;;6301963;28;20047;-79
2023/09/24 04:19:52;;;;;;;4.28;2.15;;;6.90;99.90;;;;;;6301937;28;20048;-81
2023/09/24 04:22:54;;;;;;;2.40;2.20;;;6.90;99.90;;;;;;6301918;28;20355;-78
2023/09/24 04:25:57;;;;;;;2.70;2.08;;;6.90;99.90;;;;;;6300968;28;20045;-79
2023/09/24 04:28:59;;;;;;;8.93;2.17;;;6.80;99.90;;;;;;6301249;28;20048;-80
2023/09/24 04:32:01;;;;;;;1.90;1.52;;;6.80;99.90;;;;;;6300914;28;20416;-80
2023/09/24 04:35:03;;;;;;;1.83;1.30;;;6.80;99.90;;;;;;6301734;28;20045;-80
2023/09/24 04:38:06;;;;;;;9.73;1.67;;;6.80;99.90;;;;;;6302595;28;20430;-79
2023/09/24 04:41:09;;;;;;;2.65;1.85;;;6.70;99.90;;;;;;6302597;28;20045;-80
2023/09/24 04:44:11;;;;;;;3.67;1.95;;;6.70;99.90;;;;;;6305842;28;20053;-79
2023/09/24 04:47:13;;;;;;;2.30;1.60;;;6.70;99.90;;;;;;6313023;28;20106;-80
2023/09/24 04:50:14;;;;;;;2.20;1.90;;;6.70;99.90;;;;;;6309454;28;20048;-79
2023/09/24 04:53:16;;;;;;;4.20;1.85;;;6.60;99.90;;;;;;6305865;28;20040;-79
2023/09/24 04:56:19;;;;;;;2.35;2.15;;;6.60;99.90;;;;;;6305996;28;20052;-80
2023/09/24 04:59:21;;;;;;;1.75;1.63;;;6.50;99.90;;;;;;6305882;28;20493;-81
2023/09/24 05:02:23;;;;;;;2.15;1.77;;;6.50;99.90;;;;;;6305588;28;20139;-80
2023/09/24 05:05:25;;;;;;;2.33;1.45;;;6.50;99.90;;;;;;6307046;28;20060;-79
2023/09/24 05:08:27;;;;;;;5.97;1.90;;;6.50;99.90;;;;;;6306407;28;20044;-80
2023/09/24 05:11:30;;;;;;;2.50;1.52;;;6.60;99.90;;;;;;6306320;28;20075;-79
2023/09/24 05:14:32;;;;;;;2.33;1.75;;;6.60;99.90;;;;;;6306248;28;20057;-80
2023/09/24 05:17:33;;;;;;;4.78;2.22;;;6.60;99.90;;;;;;6307222;28;20047;-80
2023/09/24 05:20:35;;;;;;;1.65;1.55;;;6.60;99.90;;;;;;6310409;28;20047;-80
2023/09/24 05:23:37;;;;;;;2.22;1.98;;;6.60;99.90;;;;;;6309464;28;20049;-80
2023/09/24 05:26:40;;;;;;;4.18;1.85;;;6.60;99.90;;;;;;6309428;28;20076;-80
2023/09/24 05:29:42;;;;;;;3.53;1.88;;;6.50;99.90;;;;;;6307390;28;20051;-80
2023/09/24 05:32:44;;;;;;;2.40;1.45;;;6.60;99.90;;;;;;6306384;28;20038;-80
2023/09/24 05:35:50;;;;;;;4.20;1.60;;;6.60;99.90;;;;;;6306142;28;20045;-80
2023/09/24 05:38:51;;;;;;;2.70;2.15;;;6.60;99.90;;;;;;6296847;28;20045;-80
2023/09/24 05:41:55;;;;;;;2.50;2.00;;;6.60;99.90;;;;;;6306497;28;20057;-80
2023/09/24 05:44:57;;;;;;;2.05;1.95;;;6.70;99.90;;;;;;6304097;28;20051;-80
2023/09/24 05:47:58;;;;;;;2.85;1.38;;;6.70;99.90;;;;;;6305232;28;20048;-80
2023/09/24 05:51:03;;;;;;;2.72;1.40;;;6.80;99.90;;;;;;6304138;28;20048;-80
2023/09/24 05:54:05;;;;;;;3.33;2.25;;;6.90;99.90;;;;;;6304386;28;20529;-80
2023/09/24 05:57:08;;;;;;;1.90;1.73;;;6.90;99.90;;;;;;6302153;28;20520;-80
2023/09/24 06:00:11;;;;;;;3.05;1.52;;;7.00;99.90;;;;;;6276655;28;20053;-80
2023/09/24 06:03:14;;;;;;;2.58;2.00;;;7.00;99.90;;;;;;6299360;28;20090;-79
2023/09/24 06:06:15;;;;;;;1.52;1.42;;;7.10;99.90;;;;;;6302201;28;20044;-80
2023/09/24 06:09:17;;;;;;;2.58;2.22;;;7.10;99.90;;;;;;6305263;28;20045;-80
2023/09/24 06:12:21;;;;;;;2.25;1.83;;;7.20;99.90;;;;;;6302022;28;20045;-80
2023/09/24 06:15:23;;;;;;;3.10;1.80;;;7.30;99.90;;;;;;6308409;28;20044;-80
2023/09/24 06:18:25;;;;;;;2.40;1.85;;;7.40;99.90;;;;;;6308489;28;20050;-80
2023/09/24 06:21:27;;;;;;;1.40;1.30;;;7.50;99.90;;;;;;6302334;28;20059;-81
2023/09/24 06:24:29;;;;;;;2.80;2.10;;;7.70;99.90;;;;;;6298687;28;20092;-79
2023/09/24 06:27:32;;;;;;;3.45;2.20;;;7.90;99.90;;;;;;6300607;28;20521;-80
2023/09/24 06:30:34;;;;;;;5.15;3.33;;;8.10;99.90;;;;;;6299771;28;20066;-79
2023/09/24 06:33:36;;;;;;;3.03;2.10;;;8.30;99.90;;;;;;6299970;28;20048;-80
2023/09/24 06:36:37;;;;;;;2.20;1.92;;;8.50;99.90;;;;;;6302153;28;20509;-79
2023/09/24 06:39:41;;;;;;;4.95;1.95;;;8.70;99.90;;;;;;6303662;28;20470;-79
2023/09/24 06:42:45;;;;;;;4.03;1.40;;;8.80;99.90;;;;;;6301466;28;20106;-80
2023/09/24 06:45:47;;;;;;;3.80;2.00;;;9.00;99.90;;;;;;6302366;28;20040;-79
2023/09/24 06:48:49;;;;;;;2.28;1.70;;;9.20;99.90;;;;;;6301939;28;20051;-80
2023/09/24 06:51:53;;;;;;;2.03;1.90;;;9.50;99.90;;;;;;6304930;28;20059;-80
2023/09/24 06:54:54;;;;;;;2.55;1.92;;;9.70;99.90;;;;;;6296057;28;20044;-79
2023/09/24 06:57:57;;;;;;;1.88;1.77;;;10.10;99.90;;;;;;6304682;28;20041;-80
2023/09/24 07:01:00;;;;;;;2.50;2.25;;;10.40;99.90;;;;;;6305542;28;20524;-81
2023/09/24 07:04:01;;;;;;;2.47;1.70;;;10.70;99.90;;;;;;6305395;28;20059;-80
2023/09/24 07:07:03;;;;;;;2.55;1.88;;;11.10;99.90;;;;;;6302554;28;20115;-79
2023/09/24 07:10:06;;;;;;;1.73;1.63;;;11.50;99.90;;;;;;6302555;28;20059;-81
2023/09/24 07:13:09;;;;;;;2.35;1.73;;;11.90;99.90;;;;;;6304142;28;20453;-80
2023/09/24 07:16:11;;;;;;;2.92;1.63;;;12.30;99.90;;;;;;6303749;28;20048;-81
2023/09/24 07:19:13;;;;;;;4.20;1.80;;;12.80;99.90;;;;;;6302786;28;20519;-79
2023/09/24 07:22:15;;;;;;;3.67;1.73;;;13.10;99.90;;;;;;6304207;28;20051;-79
2023/09/24 07:25:17;;;;;;;5.65;1.63;;;13.30;99.90;;;;;;6302573;28;20053;-79
2023/09/24 07:28:24;;;;;;;2.75;1.25;;;13.60;99.90;;;;;;6302760;28;20041;-78
2023/09/24 07:31:26;;;;;;;3.70;2.42;;;14.00;99.90;;;;;;6306296;28;20056;-80
2023/09/24 07:34:28;;;;;;;3.90;1.60;;;14.40;99.90;;;;;;6305577;28;20051;-79
2023/09/24 07:37:30;;;;;;;2.55;1.60;;;14.80;99.90;;;;;;6304516;28;20086;-81
2023/09/24 07:40:32;;;;;;;3.50;1.55;;;15.20;99.90;;;;;;6303241;28;20041;-79
2023/09/24 07:43:35;;;;;;;1.98;1.50;;;15.50;99.90;;;;;;6302471;28;20122;-80
2023/09/24 07:46:37;;;;;;;5.68;2.17;;;15.90;99.90;;;;;;6302104;28;20068;-79
2023/09/24 07:49:38;;;;;;;1.27;1.15;;;16.40;99.90;;;;;;6296335;28;20048;-76
2023/09/24 07:52:40;;;;;;;6.95;1.58;;;17.10;99.90;;;;;;6300097;28;20044;-79
2023/09/24 07:55:42;;;;;;;2.38;1.60;;;17.90;99.90;;;;;;6300849;28;20420;-77
2023/09/24 07:58:45;;;;;;;1.08;1.00;;;18.80;99.90;;;;;;6299065;28;20060;-77
2023/09/24 08:01:46;;;;;;;1.67;1.10;;;19.50;99.90;;;;;;6298560;28;20509;-78
2023/09/24 08:04:49;;;;;;;1.70;1.42;;;20.00;99.90;;;;;;6298552;28;20519;-79
2023/09/24 08:07:50;;;;;;;2.17;1.27;;;20.50;99.90;;;;;;6288857;28;20065;-78
2023/09/24 08:10:52;;;;;;;1.35;1.05;;;21.00;99.90;;;;;;6296728;28;20059;-79
2023/09/24 08:13:55;;;;;;;2.13;1.27;;;21.30;99.90;;;;;;6297835;28;20040;-79
2023/09/24 08:16:57;;;;;;;2.50;1.60;;;21.50;99.70;;;;;;6299987;28;20041;-78
2023/09/24 08:19:58;;;;;;;3.42;2.30;;;21.80;98.30;;;;;;6290824;28;20044;-77
2023/09/24 08:23:00;;;;;;;3.33;0.98;;;22.00;97.10;;;;;;6291949;28;20063;-81
2023/09/24 08:26:02;;;;;;;6.22;2.28;;;22.20;96.10;;;;;;6298500;28;20060;-77
2023/09/24 08:29:06;;;;;;;13.35;2.30;;;22.20;95.20;;;;;;6296840;28;20413;-78
2023/09/24 08:32:07;;;;;;;4.85;1.23;;;22.20;94.70;;;;;;6297775;28;20052;-77
2023/09/24 08:35:09;;;;;;;3.10;2.15;;;22.10;94.30;;;;;;6294998;28;20135;-76
2023/09/24 08:38:11;;;;;;;3.08;1.48;;;21.80;93.70;;;;;;6296668;28;20040;-77
2023/09/24 08:41:13;;;;;;;2.70;1.13;;;21.70;93.70;;;;;;6297098;28;20528;-78
2023/09/24 08:44:18;;;;;;;2.47;1.60;;;21.50;93.40;;;;;;6296946;28;20044;-78
2023/09/24 08:47:20;;;;;;;2.83;1.90;;;21.40;92.70;;;;;;6300065;28;20070;-78
2023/09/24 08:50:22;;;;;;;2.60;1.42;;;21.30;92.60;;;;;;6300337;28;20060;-79
2023/09/24 08:53:28;;;;;;;2.65;1.80;;;21.40;92.60;;;;;;6297308;28;20048;-77
2023/09/24 08:56:29;;;;;;;2.05;1.60;;;21.50;92.20;;;;;;6279245;28;20048;-77
2023/09/24 08:59:32;;;;;;;1.75;1.48;;;21.80;91.70;;;;;;6293063;28;20490;-78
2023/09/24 09:02:34;;;;;;;7.15;1.45;;;21.80;91.10;;;;;;6299067;28;20052;-78
2023/09/24 09:05:38;;;;;;;4.57;2.33;;;22.10;90.90;;;;;;6306009;28;20051;-77
2023/09/24 09:08:50;;;;;;;3.35;1.80;;;22.40;90.20;;;;;;6292193;28;20036;-77
2023/09/24 09:11:52;;;;;;;1.90;1.38;;;22.70;88.80;;;;;;6298808;28;20055;-78
2023/09/24 09:14:56;;;;;;;3.55;2.28;;;23.00;87.80;;;;;;6297674;28;20040;-77
2023/09/24 09:17:57;;;;;;;3.70;0.90;;;23.20;86.30;;;;;;6298928;28;20437;-79
2023/09/24 09:20:59;;;;;;;2.63;1.08;;;23.30;84.80;;;;;;6297887;28;20040;-78
2023/09/24 09:24:01;;;;;;;1.02;0.85;;;23.40;84.10;;;;;;6298950;28;20055;-78
2023/09/24 09:27:03;;;;;;;4.38;1.25;;;23.50;82.70;;;;;;6297470;28;20059;-77
2023/09/24 09:30:15;;;;;;;2.35;0.80;;;23.40;81.50;;;;;;6286411;28;20036;-78
2023/09/24 09:33:25;;;;;;;3.20;1.15;;;23.20;80.50;;;;;;6295469;28;20041;-79
2023/09/24 09:36:30;;;;;;;1.55;0.68;;;23.10;79.90;;;;;;6297911;28;20076;-77
2023/09/24 09:39:31;;;;;;;3.30;2.88;;;22.90;80.20;;;;;;6297668;28;20068;-77
2023/09/24 09:42:34;;;;;;;2.95;1.05;;;22.50;79.70;;;;;;6296913;28;20119;-78
2023/09/24 09:45:37;;;;;;;0.88;0.75;;;22.50;80.40;;;;;;6297496;28;20055;-78
2023/09/24 09:48:43;;;;;;;2.55;2.33;;;22.80;79.80;;;;;;6297781;28;20048;-77
2023/09/24 09:51:46;;;;;;;8.38;1.08;;;22.90;79.00;;;;;;6298165;28;20055;-78
2023/09/24 09:54:52;;;;;;;1.08;0.82;;;22.80;78.30;;;;;;6297265;28;20123;-77
2023/09/24 09:57:55;;;;;;;1.92;1.00;;;22.90;78.60;;;;;;6296707;28;20051;-78
2023/09/24 10:00:59;;;;;;;1.95;0.65;;;23.40;77.90;;;;;;6293132;28;20041;-78
2023/09/24 10:04:02;;;;;;;3.08;1.00;;;23.60;75.60;;;;;;6296456;28;20067;-78
2023/09/24 10:07:06;;;;;;;3.78;0.90;;;23.30;75.90;;;;;;6296765;28;20615;-79
2023/09/24 10:10:42;;;;;;;4.35;1.08;;;23.40;75.20;;;;;;6290590;28;20390;-78
2023/09/24 10:13:46;;;;;;;4.25;0.80;;;23.30;73.80;;;;;;6297336;28;20048;-77
2023/09/24 10:16:49;;;;;;;2.35;1.60;;;23.20;73.80;;;;;;6297925;28;20045;-77
2023/09/24 10:19:52;;;;;;;0.80;0.80;;;23.40;74.10;;;;;;6297477;28;20040;-76
2023/09/24 10:22:53;;;;;;;1.95;0.68;;;23.70;72.70;;;;;;6297339;28;20518;-78
2023/09/24 10:25:56;;;;;;;2.28;1.40;;;23.80;72.00;;;;;;6296897;28;20051;-78
2023/09/24 10:28:58;;;;;;;1.48;1.02;;;23.60;71.00;;;;;;6297058;28;20421;-78
2023/09/24 10:32:17;;;;;;;3.58;1.20;;;23.40;71.00;;;;;;6297788;28;20048;-77
2023/09/24 10:35:20;;;;;;;2.85;1.25;;;23.40;70.80;;;;;;6297320;28;20068;-77
2023/09/24 10:38:22;;;;;;;1.60;0.90;;;23.60;70.70;;;;;;6297644;28;20050;-80
2023/09/24 10:41:23;;;;;;;2.67;1.27;;;24.10;70.00;;;;;;6296859;28;20051;-79
2023/09/24 10:44:26;;;;;;;1.35;0.90;;;24.30;69.50;;;;;;6296394;28;20055;-79
2023/09/24 10:47:30;;;;;;;4.78;2.45;;;24.60;69.40;;;;;;6297334;28;20072;-77
2023/09/24 10:50:32;;;;;;;2.13;1.13;;;25.20;69.00;;;;;;6296905;28;20117;-78
2023/09/24 10:53:33;;;;;;;2.55;0.80;;;25.50;67.50;;;;;;6296992;28;20052;-79
2023/09/24 10:56:35;;;;;;;1.25;1.00;;;25.40;66.70;;;;;;6292662;28;20059;-78
2023/09/24 10:59:37;;;;;;;1.25;0.98;;;25.30;65.90;;;;;;6296606;28;20523;-77
2023/09/24 11:02:40;;;;;;;1.70;1.30;;;25.30;65.70;;;;;;6296654;28;20052;-77
2023/09/24 11:05:44;;;;;;;1.25;0.85;;;25.30;64.30;;;;;;6296468;28;20055;-79
2023/09/24 11:08:46;;;;;;;1.45;0.90;;;25.10;63.30;;;;;;6297018;28;20447;-79
2023/09/24 11:11:48;;;;;;;2.58;0.77;;;25.10;63.90;;;;;;6297048;28;20531;-78
2023/09/24 11:14:57;;;;;;;0.85;0.82;;;25.00;63.50;;;;;;6297119;28;20075;-79
2023/09/24 11:18:00;;;;;;;1.75;1.15;;;25.10;63.40;;;;;;6293189;28;20037;-78
2023/09/24 11:21:02;;;;;;;0.93;0.68;;;25.00;63.80;;;;;;6291305;28;20429;-77
2023/09/24 11:24:18;;;;;;;2.10;1.33;;;25.50;63.50;;;;;;6296476;28;20048;-78
2023/09/24 11:27:20;;;;;;;2.63;0.70;;;26.00;61.60;;;;;;6292833;28;20048;-78
2023/09/24 11:30:22;;;;;;;0.95;0.65;;;25.70;60.50;;;;;;6295389;28;20389;-78
2023/09/24 11:33:25;;;;;;;1.75;0.50;;;25.40;60.80;;;;;;6293744;28;20044;-78
2023/09/24 11:36:28;;;;;;;3.00;1.13;;;25.40;61.10;;;;;;6292480;28;20053;-78
2023/09/24 11:39:30;;;;;;;4.10;1.10;;;25.90;60.80;;;;;;6300720;28;20409;-79
2023/09/24 11:42:32;;;;;;;1.45;0.90;;;25.90;59.90;;;;;;6300842;28;20505;-77
2023/09/24 11:45:48;;;;;;;3.13;1.02;;;26.00;59.90;;;;;;6300016;28;20048;-76
2023/09/24 11:48:52;;;;;;;1.38;0.82;;;26.10;59.50;;;;;;6300735;28;20579;-78
2023/09/24 11:51:55;;;;;;;1.45;0.88;;;26.30;59.00;;;;;;6300965;28;20044;-79
2023/09/24 11:54:57;;;;;;;1.42;0.68;;;26.30;59.00;;;;;;6299976;28;20047;-78
2023/09/24 11:57:58;;;;;;;1.20;0.88;;;26.70;59.00;;;;;;6300230;28;20044;-77
2023/09/24 12:01:03;;;;;;;1.30;0.85;;;27.40;58.50;;;;;;6298390;28;20040;-78
2023/09/24 12:04:07;;;;;;;2.28;1.13;;;27.70;57.10;;;;;;6298543;28;20045;-79
2023/09/24 12:07:08;;;;;;;1.50;0.93;;;27.60;55.50;;;;;;6297975;28;20059;-77
2023/09/24 12:10:10;;;;;;;1.67;0.82;;;27.40;55.60;;;;;;6294121;28;20044;-77
2023/09/24 12:13:13;;;;;;;2.22;1.13;;;27.20;55.40;;;;;;6297631;28;20036;-78
2023/09/24 12:16:15;;;;;;;2.33;1.33;;;27.10;55.60;;;;;;6299446;28;20193;-77
2023/09/24 12:19:18;;;;;;;1.60;0.90;;;27.40;54.80;;;;;;6299167;28;20056;-78
2023/09/24 12:22:21;;;;;;;1.58;0.90;;;27.30;54.30;;;;;;6298559;28;20044;-77
2023/09/24 12:25:23;;;;;;;2.13;0.98;;;27.20;54.30;;;;;;6299263;28;20040;-78
2023/09/24 12:28:27;;;;;;;1.80;0.75;;;27.50;54.20;;;;;;6299505;28;20044;-78
2023/09/24 12:31:29;;;;;;;2.50;1.38;;;27.40;53.40;;;;;;6300688;28;20062;-78
2023/09/24 12:34:32;;;;;;;1.48;0.90;;;27.40;53.60;;;;;;6299114;28;20052;-77
2023/09/24 12:37:34;;;;;;;1.58;0.75;;;27.60;53.00;;;;;;6299909;28;20044;-79
2023/09/24 12:40:36;;;;;;;1.27;0.77;;;27.30;53.00;;;;;;6301378;28;20040;-79
2023/09/24 12:43:38;;;;;;;1.80;0.88;;;27.30;52.90;;;;;;6300217;28;20068;-78
2023/09/24 12:46:40;;;;;;;1.77;1.00;;;27.70;52.50;;;;;;6299516;28;20040;-79
2023/09/24 12:49:43;;;;;;;3.08;1.80;;;27.70;52.10;;;;;;6298545;28;20477;-78
2023/09/24 12:52:45;;;;;;;2.72;0.70;;;28.00;51.80;;;;;;6299226;28;20049;-79
2023/09/24 12:55:47;;;;;;;1.08;0.70;;;27.80;51.00;;;;;;6299029;28;20048;-77
2023/09/24 12:58:50;;;;;;;2.63;1.00;;;27.30;50.90;;;;;;6296145;28;20501;-78
2023/09/24 13:01:51;;;;;;;3.58;0.80;;;27.30;51.20;;;;;;6297191;28;20040;-77
2023/09/24 13:04:55;;;;;;;0.90;0.68;;;27.30;51.20;;;;;;6298012;28;20047;-78
2023/09/24 13:07:56;;;;;;;2.03;0.85;;;27.40;50.80;;;;;;6299439;28;20046;-78
2023/09/24 13:11:01;;;;;;;1.67;1.00;;;27.50;50.60;;;;;;6299055;28;20045;-78
2023/09/24 13:14:03;;;;;;;3.75;1.35;;;27.30;49.70;;;;;;6298733;28;20045;-78
2023/09/24 13:17:05;;;;;;;1.98;0.98;;;26.90;50.20;;;;;;6299591;28;20036;-77
2023/09/24 13:20:09;;;;;;;2.33;0.88;;;26.70;50.60;;;;;;6299735;28;20089;-77
2023/09/24 13:23:11;;;;;;;3.97;1.23;;;26.90;50.30;;;;;;6298647;28;20048;-78
2023/09/24 13:26:13;;;;;;;2.10;1.00;;;27.10;49.90;;;;;;6298097;28;20051;-77
2023/09/24 13:29:14;;;;;;;1.40;1.08;;;26.80;49.40;;;;;;6298783;28;20044;-77
2023/09/24 13:32:18;;;;;;;4.57;1.35;;;26.30;49.60;;;;;;6298478;28;20123;-78
2023/09/24 13:35:21;;;;;;;1.27;0.80;;;26.30;50.20;;;;;;6298325;28;20125;-79
2023/09/24 13:38:23;;;;;;;2.38;1.15;;;26.50;49.70;;;;;;6296825;28;20113;-78
2023/09/24 13:41:25;;;;;;;1.05;0.75;;;26.20;49.80;;;;;;6297395;28;20055;-78
2023/09/24 13:44:27;;;;;;;1.38;0.80;;;25.80;50.10;;;;;;6300026;28;20139;-77
2023/09/24 13:47:29;;;;;;;1.73;0.93;;;25.70;50.30;;;;;;6315127;28;20048;-79
2023/09/24 13:50:32;;;;;;;3.22;1.13;;;25.70;50.30;;;;;;6314193;28;20040;-78
2023/09/24 13:53:33;;;;;;;3.35;0.95;;;25.90;50.50;;;;;;6314429;28;20048;-78
2023/09/24 13:56:36;;;;;;;4.70;1.60;;;26.20;50.50;;;;;;6314052;28;20044;-79
2023/09/24 13:59:37;;;;;;;0.90;0.80;;;26.60;49.80;;;;;;6316035;28;20098;-77
2023/09/24 14:02:41;;;;;;;2.42;0.95;;;26.70;49.90;;;;;;6313825;28;20044;-79
2023/09/24 14:05:44;;;;;;;1.90;1.27;;;26.80;49.80;;;;;;6312807;28;20037;-78
2023/09/24 14:12:21;;;;;;;2.03;0.65;;;26.80;50.10;;;;;;6306097;28;20123;-78
2023/09/24 14:15:23;;;;;;;1.63;1.00;;;26.90;50.10;;;;;;6310188;28;20055;-78
2023/09/24 14:18:25;;;;;;;1.42;0.70;;;26.80;50.10;;;;;;6299141;28;20060;-78
2023/09/24 14:21:28;;;;;;;2.45;1.00;;;26.90;50.20;;;;;;6303010;28;20634;-78
2023/09/24 14:24:29;;;;;;;2.30;1.08;;;26.90;49.90;;;;;;6293001;28;20079;-79
2023/09/24 14:27:31;;;;;;;1.40;1.20;;;26.60;50.20;;;;;;6297052;28;20398;-79
2023/09/24 14:30:36;;;;;;;0.98;0.88;;;26.40;50.00;;;;;;6309373;28;20044;-79
2023/09/24 14:33:38;;;;;;;1.33;1.17;;;26.40;50.10;;;;;;6310697;28;20045;-78
2023/09/24 14:36:41;;;;;;;1.52;0.95;;;26.60;50.00;;;;;;6257907;28;20049;-79
2023/09/24 14:39:42;;;;;;;2.65;1.40;;;26.60;49.60;;;;;;6284119;28;20053;-79
2023/09/24 14:42:44;;;;;;;1.30;0.70;;;26.40;49.80;;;;;;6306066;28;20116;-79
2023/09/24 14:45:48;;;;;;;1.13;0.90;;;26.30;50.00;;;;;;6308253;28;20045;-79
2023/09/24 14:48:49;;;;;;;1.70;1.02;;;26.20;50.90;;;;;;6308139;28;20068;-84
2023/09/24 14:51:52;;;;;;;2.00;0.85;;;25.90;50.00;;;;;;6312610;28;20123;-82
2023/09/24 14:54:54;;;;;;;1.63;0.73;;;25.80;50.10;;;;;;6301571;28;20043;-79
2023/09/24 14:57:56;;;;;;;1.80;1.05;;;25.20;50.30;;;;;;6314819;28;20059;-80
2023/09/24 15:01:03;;;;;;;1.85;1.10;;;24.60;50.80;;;;;;6306768;28;20060;-82
2023/09/24 15:04:05;;;;;;;1.55;0.90;;;24.20;51.20;;;;;;6312062;28;20052;-78
2023/09/24 15:07:10;;;;;;;1.65;0.80;;;23.70;51.70;;;;;;6304575;28;20654;-78
2023/09/24 15:10:12;;;;;;;1.52;0.80;;;23.30;52.20;;;;;;6299945;28;20052;-83
2023/09/24 15:13:14;;;;;;;2.03;1.10;;;23.00;52.70;;;;;;6300610;28;20040;-84
2023/09/24 15:19:20;;;;;;;2.67;1.33;;;22.50;53.40;;;;;;6308217;28;20045;-80
2023/09/24 15:22:23;;;;;;;1.70;0.85;;;22.20;53.80;;;;;;6297380;28;20105;-79
2023/09/24 15:25:25;;;;;;;1.30;1.20;;;22.00;54.10;;;;;;6303943;28;20045;-79
2023/09/24 15:28:26;;;;;;;3.65;1.30;;;21.80;54.70;;;;;;6288231;28;20565;-78
2023/09/24 15:31:28;;;;;;;1.75;0.95;;;21.60;55.10;;;;;;6297741;28;20052;-81
2023/09/24 15:34:30;;;;;;;1.40;1.10;;;21.40;55.40;;;;;;6297470;28;20045;-80
2023/09/24 15:37:33;;;;;;;1.98;1.17;;;21.30;55.80;;;;;;6301782;28;20044;-82
2023/09/24 15:40:35;;;;;;;1.38;1.02;;;21.20;56.20;;;;;;6298542;28;20051;-81
2023/09/24 15:43:37;;;;;;;1.55;1.10;;;21.10;56.50;;;;;;6297535;28;20052;-81
2023/09/24 15:46:39;;;;;;;1.50;0.85;;;21.00;56.80;;;;;;6305192;28;20052;-79
2023/09/24 15:49:40;;;;;;;2.15;1.50;;;20.90;57.00;;;;;;6306203;28;20049;-80
2023/09/24 15:52:44;;;;;;;4.38;1.02;;;20.80;57.30;;;;;;6306114;28;20041;-80
2023/09/24 15:55:46;;;;;;;2.78;1.33;;;20.80;57.60;;;;;;6297633;28;21246;-81
2023/09/24 15:58:48;;;;;;;1.55;1.20;;;20.70;57.50;;;;;;6299540;28;20052;-81
2023/09/24 16:01:49;;;;;;;3.13;1.30;;;20.60;57.50;;;;;;6303778;28;20041;-80